Time,TemperatureF,DewpointF,PressureIn,WindDirection,WindDirectionDegrees,WindSpeedMPH,WindSpeedGustMPH,Humidity,HourlyPrecipIn,Conditions,Clouds,dailyrainin,SolarRadiationWatts/m^2,SoftwareType,DateUTC
2013-06-10 00:02:00,82.6,18.0,-100.00,SSW,196,6.0,12.0,9,0.00,,,0.00,0.0,meteohub,2013-06-10 04:02:00,
2013-06-10 00:07:00,82.8,18.1,-100.00,South,186,3.0,12.0,9,0.00,,,0.00,0.0,meteohub,2013-06-10 04:07:00,
2013-06-10 00:12:00,82.4,18.0,-100.00,SE,146,10.0,12.0,9,0.00,,,0.00,0.0,meteohub,2013-06-10 04:12:00,
2013-06-10 00:17:00,82.2,17.8,-100.00,SSE,152,10.0,11.0,9,0.00,,,0.00,0.0,meteohub,2013-06-10 04:17:00,
2013-06-10 00:22:00,82.2,17.8,-100.00,South,186,4.0,11.0,9,0.00,,,0.00,0.0,meteohub,2013-06-10 04:22:00,
2013-06-10 00:27:00,82.6,18.0,-100.00,SSE,149,10.0,11.0,9,0.00,,,0.00,0.0,meteohub,2013-06-10 04:27:00,
2013-06-10 00:32:00,82.2,17.8,-100.00,SSW,192,6.0,12.0,9,0.00,,,0.00,0.0,meteohub,2013-06-10 04:32:00,
2013-06-10 00:37:00,82.6,18.0,-100.00,South,182,4.0,12.0,9,0.00,,,0.00,0.0,meteohub,2013-06-10 04:37:00,
2013-06-10 00:42:00,82.6,18.0,-100.00,South,184,6.0,12.0,9,0.00,,,0.00,0.0,meteohub,2013-06-10 04:42:00,
2013-06-10 00:47:00,82.2,17.8,-100.00,South,179,6.0,12.0,9,0.00,,,0.00,0.0,meteohub,2013-06-10 04:47:00,
2013-06-10 00:52:00,82.0,17.6,-100.00,SSE,163,4.0,12.0,9,0.00,,,0.00,0.0,meteohub,2013-06-10 04:52:00,
2013-06-10 00:57:00,82.4,18.0,-100.00,SSW,212,5.0,11.0,9,0.00,,,0.00,0.0,meteohub,2013-06-10 04:57:00,
2013-06-10 01:02:00,82.4,18.0,-100.00,SSE,164,6.0,11.0,9,0.00,,,0.00,0.0,meteohub,2013-06-10 05:02:00,
2013-06-10 01:12:00,82.0,17.6,-100.00,South,184,1.0,11.0,9,0.00,,,0.00,0.0,meteohub,2013-06-10 05:12:00,
2013-06-10 01:17:00,82.0,17.6,-100.00,South,175,6.0,11.0,9,0.00,,,0.00,0.0,meteohub,2013-06-10 05:17:00,
2013-06-10 01:27:00,82.2,17.8,-100.00,SSE,167,5.0,11.0,9,0.00,,,0.00,0.0,meteohub,2013-06-10 05:27:00,
2013-06-10 01:37:00,82.0,17.6,-100.00,SE,144,6.0,10.0,9,0.00,,,0.00,0.0,meteohub,2013-06-10 05:37:00,
2013-06-10 01:42:00,82.2,17.8,-100.00,South,172,6.0,12.0,9,0.00,,,0.00,0.0,meteohub,2013-06-10 05:42:00,
2013-06-10 01:47:00,82.2,17.8,-100.00,South,186,6.0,12.0,9,0.00,,,0.00,0.0,meteohub,2013-06-10 05:47:00,
2013-06-10 01:52:00,82.2,17.8,-100.00,South,171,9.0,12.0,9,0.00,,,0.00,0.0,meteohub,2013-06-10 05:52:00,
2013-06-10 01:57:00,82.0,17.6,-100.00,SSE,149,5.0,14.0,9,0.00,,,0.00,0.0,meteohub,2013-06-10 05:57:00,
2013-06-10 02:02:00,82.6,18.0,-100.00,SE,141,9.0,14.0,9,0.00,,,0.00,0.0,meteohub,2013-06-10 06:02:00,
2013-06-10 02:07:00,82.4,18.0,-100.00,South,178,4.0,14.0,9,0.00,,,0.00,0.0,meteohub,2013-06-10 06:07:00,
2013-06-10 02:12:00,82.2,17.8,-100.00,SSW,192,5.0,13.0,9,0.00,,,0.00,0.0,meteohub,2013-06-10 06:12:00,
2013-06-10 02:17:00,82.0,17.6,-100.00,South,171,8.0,13.0,9,0.00,,,0.00,0.0,meteohub,2013-06-10 06:17:00,
2013-06-10 02:22:00,82.2,17.8,-100.00,ESE,122,2.0,11.0,9,0.00,,,0.00,0.0,meteohub,2013-06-10 06:22:00,
2013-06-10 02:27:00,82.4,18.0,-100.00,SSW,196,3.0,11.0,9,0.00,,,0.00,0.0,meteohub,2013-06-10 06:27:00,
2013-06-10 02:37:00,82.2,17.8,-100.00,South,173,3.0,11.0,9,0.00,,,0.00,0.0,meteohub,2013-06-10 06:37:00,
2013-06-10 02:42:00,82.4,18.0,-100.00,SSE,156,4.0,11.0,9,0.00,,,0.00,0.0,meteohub,2013-06-10 06:42:00,
2013-06-10 02:47:00,82.2,17.8,-100.00,SSW,194,0.0,11.0,9,0.00,,,0.00,0.0,meteohub,2013-06-10 06:47:00,
2013-06-10 02:52:00,82.2,17.8,-100.00,SE,134,0.0,10.0,9,0.00,,,0.00,0.0,meteohub,2013-06-10 06:52:00,
2013-06-10 02:57:00,82.2,17.8,-100.00,SSE,161,4.0,10.0,9,0.00,,,0.00,0.0,meteohub,2013-06-10 06:57:00,
2013-06-10 03:02:00,82.0,17.6,-100.00,South,175,3.0,10.0,9,0.00,,,0.00,0.0,meteohub,2013-06-10 07:02:00,
2013-06-10 03:07:00,82.2,17.8,-100.00,South,171,2.0,10.0,9,0.00,,,0.00,0.0,meteohub,2013-06-10 07:07:00,
2013-06-10 03:12:00,82.0,17.6,-100.00,SE,140,6.0,10.0,9,0.00,,,0.00,0.0,meteohub,2013-06-10 07:12:00,
2013-06-10 03:17:00,82.0,17.6,-100.00,South,188,4.0,9.0,9,0.00,,,0.00,0.0,meteohub,2013-06-10 07:17:00,
2013-06-10 03:27:00,82.0,17.6,-100.00,SE,137,9.0,9.0,9,0.00,,,0.00,0.0,meteohub,2013-06-10 07:27:00,
2013-06-10 03:32:00,82.0,17.6,-100.00,South,178,5.0,10.0,9,0.00,,,0.00,0.0,meteohub,2013-06-10 07:32:00,
2013-06-10 03:37:00,81.9,17.4,-100.00,South,189,7.0,10.0,9,0.00,,,0.00,0.0,meteohub,2013-06-10 07:37:00,
2013-06-10 03:42:00,82.0,17.6,-100.00,SSW,192,6.0,10.0,9,0.00,,,0.00,0.0,meteohub,2013-06-10 07:42:00,
2013-06-10 03:47:00,82.2,17.8,-100.00,SSE,149,6.0,10.0,9,0.00,,,0.00,0.0,meteohub,2013-06-10 07:47:00,
2013-06-10 03:52:00,82.0,17.6,-100.00,SSE,163,3.0,10.0,9,0.00,,,0.00,0.0,meteohub,2013-06-10 07:52:00,
2013-06-10 03:57:00,82.0,17.6,-100.00,SSE,150,8.0,10.0,9,0.00,,,0.00,0.0,meteohub,2013-06-10 07:57:00,
2013-06-10 04:07:00,82.2,17.8,-100.00,South,174,4.0,10.0,9,0.00,,,0.00,0.0,meteohub,2013-06-10 08:07:00,
2013-06-10 04:12:00,82.0,17.6,-100.00,South,173,3.0,10.0,9,0.00,,,0.00,0.0,meteohub,2013-06-10 08:12:00,
2013-06-10 04:22:00,81.9,17.4,-100.00,South,176,5.0,10.0,9,0.00,,,0.00,0.0,meteohub,2013-06-10 08:22:00,
2013-06-10 04:27:00,81.9,17.4,-100.00,SSE,157,4.0,10.0,9,0.00,,,0.00,0.0,meteohub,2013-06-10 08:27:00,
2013-06-10 04:32:00,81.7,17.4,-100.00,South,173,4.0,10.0,9,0.00,,,0.00,0.0,meteohub,2013-06-10 08:32:00,
2013-06-10 04:42:00,81.9,17.4,-100.00,ESE,119,7.0,10.0,9,0.00,,,0.00,0.0,meteohub,2013-06-10 08:42:00,
2013-06-10 04:47:00,81.9,17.4,-100.00,South,184,2.0,10.0,9,0.00,,,0.00,0.0,meteohub,2013-06-10 08:47:00,
2013-06-10 04:52:00,81.9,17.4,-100.00,SSE,148,5.0,10.0,9,0.00,,,0.00,0.0,meteohub,2013-06-10 08:52:00,
2013-06-10 04:57:00,81.9,17.4,-100.00,SSE,160,5.0,11.0,9,0.00,,,0.00,0.0,meteohub,2013-06-10 08:57:00,
2013-06-10 05:02:00,82.0,17.6,-100.00,SSE,158,6.0,11.0,9,0.00,,,0.00,0.0,meteohub,2013-06-10 09:02:00,
2013-06-10 05:12:00,82.0,17.6,-100.00,SSE,162,3.0,11.0,9,0.00,,,0.00,0.0,meteohub,2013-06-10 09:12:00,
2013-06-10 05:17:00,82.0,17.6,-100.00,ESE,119,5.0,11.0,9,0.00,,,0.00,0.0,meteohub,2013-06-10 09:17:00,
2013-06-10 05:22:00,82.0,17.6,-100.00,SSE,162,3.0,11.0,9,0.00,,,0.00,0.0,meteohub,2013-06-10 09:22:00,
2013-06-10 05:27:00,82.0,17.6,-100.00,SSE,156,2.0,11.0,9,0.00,,,0.00,0.0,meteohub,2013-06-10 09:27:00,
2013-06-10 05:37:00,82.0,17.6,-100.00,South,180,3.0,10.0,9,0.00,,,0.00,0.0,meteohub,2013-06-10 09:37:00,
2013-06-10 05:42:00,82.0,17.6,-100.00,SSW,209,4.0,11.0,9,0.00,,,0.00,0.0,meteohub,2013-06-10 09:42:00,
2013-06-10 05:47:00,82.0,17.6,-100.00,SSE,167,6.0,11.0,9,0.00,,,0.00,0.0,meteohub,2013-06-10 09:47:00,
2013-06-10 05:57:00,82.0,17.6,-100.00,South,186,5.0,10.0,9,0.00,,,0.00,0.0,meteohub,2013-06-10 09:57:00,
2013-06-10 06:07:00,81.9,17.4,-100.00,ESE,121,6.0,10.0,9,0.00,,,0.00,0.0,meteohub,2013-06-10 10:07:00,
2013-06-10 06:17:00,82.0,17.6,-100.00,South,191,3.0,9.0,9,0.00,,,0.00,0.0,meteohub,2013-06-10 10:17:00,
2013-06-10 06:22:00,82.0,17.6,-100.00,South,190,5.0,9.0,9,0.00,,,0.00,0.0,meteohub,2013-06-10 10:22:00,
2013-06-10 06:32:00,82.0,17.6,-100.00,South,185,5.0,10.0,9,0.00,,,0.00,9.0,meteohub,2013-06-10 10:32:00,
2013-06-10 06:37:00,82.4,18.0,-100.00,SSE,165,5.0,10.0,9,0.00,,,0.00,18.0,meteohub,2013-06-10 10:37:00,
2013-06-10 06:42:00,82.6,18.0,-100.00,SSE,165,2.0,10.0,9,0.00,,,0.00,26.0,meteohub,2013-06-10 10:42:00,
2013-06-10 06:47:00,82.4,18.0,-100.00,South,174,5.0,10.0,9,0.00,,,0.00,33.0,meteohub,2013-06-10 10:47:00,
2013-06-10 06:52:00,82.2,17.8,-100.00,SSW,200,4.0,10.0,9,0.00,,,0.00,40.0,meteohub,2013-06-10 10:52:00,
2013-06-10 07:02:00,82.4,18.0,-100.00,South,171,2.0,11.0,9,0.00,,,0.00,56.0,meteohub,2013-06-10 11:02:00,
2013-06-10 07:07:00,82.6,18.0,-100.00,SSE,158,7.0,11.0,9,0.00,,,0.00,79.0,meteohub,2013-06-10 11:07:00,
2013-06-10 07:12:00,82.8,18.1,-100.00,SSE,163,3.0,11.0,9,0.00,,,0.00,70.0,meteohub,2013-06-10 11:12:00,
2013-06-10 07:17:00,82.8,18.1,-100.00,South,184,4.0,11.0,9,0.00,,,0.00,121.0,meteohub,2013-06-10 11:17:00,
2013-06-10 07:22:00,82.8,18.1,-100.00,South,177,3.0,10.0,9,0.00,,,0.00,151.0,meteohub,2013-06-10 11:22:00,
2013-06-10 07:27:00,82.9,18.3,-100.00,South,181,5.0,10.0,9,0.00,,,0.00,155.0,meteohub,2013-06-10 11:27:00,
2013-06-10 07:32:00,83.3,18.5,-100.00,South,191,7.0,11.0,9,0.00,,,0.00,132.0,meteohub,2013-06-10 11:32:00,
2013-06-10 07:37:00,83.5,18.7,-100.00,SSE,152,5.0,11.0,9,0.00,,,0.00,114.0,meteohub,2013-06-10 11:37:00,
2013-06-10 07:42:00,83.5,18.7,-100.00,SSW,202,2.0,11.0,9,0.00,,,0.00,132.0,meteohub,2013-06-10 11:42:00,
2013-06-10 07:47:00,83.5,18.7,-100.00,SE,142,3.0,11.0,9,0.00,,,0.00,127.0,meteohub,2013-06-10 11:47:00,
2013-06-10 07:57:00,83.7,18.9,-100.00,ESE,107,7.0,12.0,9,0.00,,,0.00,142.0,meteohub,2013-06-10 11:57:00,
2013-06-10 08:02:00,83.8,19.0,-100.00,South,186,5.0,14.0,9,0.00,,,0.00,141.0,meteohub,2013-06-10 12:02:00,
2013-06-10 08:07:00,83.7,18.9,-100.00,SSE,154,6.0,14.0,9,0.00,,,0.00,151.0,meteohub,2013-06-10 12:07:00,
2013-06-10 08:12:00,83.8,19.0,-100.00,South,169,4.0,14.0,9,0.00,,,0.00,167.0,meteohub,2013-06-10 12:12:00,
2013-06-10 08:17:00,83.8,19.0,-100.00,South,180,3.0,11.0,9,0.00,,,0.00,185.0,meteohub,2013-06-10 12:17:00,
2013-06-10 08:22:00,83.8,16.3,-100.00,SE,146,6.0,11.0,8,0.00,,,0.00,232.0,meteohub,2013-06-10 12:22:00,
2013-06-10 08:32:00,84.6,19.6,-100.00,SE,140,10.0,10.0,9,0.00,,,0.00,309.0,meteohub,2013-06-10 12:32:00,
2013-06-10 08:37:00,84.6,19.6,-100.00,SE,144,5.0,10.0,9,0.00,,,0.00,294.0,meteohub,2013-06-10 12:37:00,
2013-06-10 08:47:00,85.5,20.1,-100.00,SSE,148,4.0,12.0,9,0.00,,,0.00,448.0,meteohub,2013-06-10 12:47:00,
2013-06-10 08:52:00,85.6,17.6,-100.00,SE,141,4.0,12.0,8,0.00,,,0.00,478.0,meteohub,2013-06-10 12:52:00,
2013-06-10 08:57:00,85.8,23.0,-100.00,South,183,7.0,14.0,10,0.00,,,0.00,295.0,meteohub,2013-06-10 12:57:00,
2013-06-10 09:02:00,86.0,23.2,-100.00,SE,132,4.0,14.0,10,0.00,,,0.00,608.0,meteohub,2013-06-10 13:02:00,
2013-06-10 09:07:00,85.8,23.0,-100.00,SSW,196,6.0,13.0,10,0.00,,,0.00,617.0,meteohub,2013-06-10 13:07:00,
2013-06-10 09:12:00,86.5,23.5,-100.00,South,169,4.0,13.0,10,0.00,,,0.00,628.0,meteohub,2013-06-10 13:12:00,
2013-06-10 09:17:00,87.1,26.2,-100.00,SE,133,11.0,13.0,11,0.00,,,0.00,577.0,meteohub,2013-06-10 13:17:00,
2013-06-10 09:22:00,86.5,27.9,-100.00,SSE,166,9.0,13.0,12,0.00,,,0.00,563.0,meteohub,2013-06-10 13:22:00,
2013-06-10 09:27:00,86.7,25.9,-100.00,SE,129,7.0,12.0,11,0.00,,,0.00,376.0,meteohub,2013-06-10 13:27:00,
2013-06-10 09:32:00,86.7,28.0,-100.00,SSE,168,7.0,12.0,12,0.00,,,0.00,555.0,meteohub,2013-06-10 13:32:00,
2013-06-10 09:42:00,86.5,25.9,-100.00,SSW,196,5.0,12.0,11,0.00,,,0.00,701.0,meteohub,2013-06-10 13:42:00,
2013-06-10 09:52:00,86.5,25.9,-100.00,SE,128,4.0,13.0,11,0.00,,,0.00,264.0,meteohub,2013-06-10 13:52:00,
2013-06-10 09:57:00,86.7,25.9,-100.00,SE,140,4.0,13.0,11,0.00,,,0.00,691.0,meteohub,2013-06-10 13:57:00,
2013-06-10 10:02:00,86.7,28.0,-100.00,South,172,5.0,13.0,12,0.00,,,0.00,758.0,meteohub,2013-06-10 14:02:00,
2013-06-10 10:07:00,87.1,30.2,-100.00,SE,142,6.0,15.0,13,0.00,,,0.00,738.0,meteohub,2013-06-10 14:07:00,
2013-06-10 10:12:00,87.4,34.2,-100.00,South,182,7.0,15.0,15,0.00,,,0.00,758.0,meteohub,2013-06-10 14:12:00,
2013-06-10 10:17:00,87.6,37.4,-100.00,SSW,195,7.0,14.0,17,0.00,,,0.00,803.0,meteohub,2013-06-10 14:17:00,
2013-06-10 10:27:00,87.4,30.6,-100.00,SSW,192,10.0,13.0,13,0.00,,,0.00,895.0,meteohub,2013-06-10 14:27:00,
2013-06-10 10:32:00,87.4,32.4,-100.00,SSW,203,7.0,13.0,14,0.00,,,0.00,940.0,meteohub,2013-06-10 14:32:00,
2013-06-10 10:37:00,87.6,36.0,-100.00,SW,215,9.0,13.0,16,0.00,,,0.00,960.0,meteohub,2013-06-10 14:37:00,
2013-06-10 10:42:00,88.2,34.7,-100.00,South,182,6.0,13.0,15,0.00,,,0.00,949.0,meteohub,2013-06-10 14:42:00,
2013-06-10 10:47:00,88.0,34.5,-100.00,South,169,2.0,14.0,15,0.00,,,0.00,819.0,meteohub,2013-06-10 14:47:00,
2013-06-10 10:52:00,88.2,34.7,-100.00,SE,130,5.0,14.0,15,0.00,,,0.00,977.0,meteohub,2013-06-10 14:52:00,
2013-06-10 10:57:00,88.2,36.3,-100.00,South,173,4.0,14.0,16,0.00,,,0.00,900.0,meteohub,2013-06-10 14:57:00,
2013-06-10 11:02:00,88.5,36.7,-100.00,South,183,8.0,14.0,16,0.00,,,0.00,788.0,meteohub,2013-06-10 15:02:00,
2013-06-10 11:07:00,88.3,39.4,-100.00,SSW,212,6.0,12.0,18,0.00,,,0.00,935.0,meteohub,2013-06-10 15:07:00,
2013-06-10 11:12:00,88.2,39.4,-100.00,SSW,203,0.0,12.0,18,0.00,,,0.00,837.0,meteohub,2013-06-10 15:12:00,
2013-06-10 11:17:00,88.3,36.5,-100.00,SSW,203,5.0,12.0,16,0.00,,,0.00,872.0,meteohub,2013-06-10 15:17:00,
2013-06-10 11:22:00,88.2,37.9,-100.00,SSW,205,4.0,12.0,17,0.00,,,0.00,939.0,meteohub,2013-06-10 15:22:00,
2013-06-10 11:27:00,88.2,37.9,-100.00,SW,216,7.0,11.0,17,0.00,,,0.00,951.0,meteohub,2013-06-10 15:27:00,
2013-06-10 11:32:00,88.2,42.1,-100.00,SSE,157,7.0,11.0,20,0.00,,,0.00,976.0,meteohub,2013-06-10 15:32:00,
2013-06-10 11:37:00,88.2,42.1,-100.00,SSW,197,2.0,13.0,20,0.00,,,0.00,1013.0,meteohub,2013-06-10 15:37:00,
2013-06-10 11:42:00,88.3,39.4,-100.00,SSE,149,4.0,13.0,18,0.00,,,0.00,1011.0,meteohub,2013-06-10 15:42:00,
2013-06-10 11:47:00,88.3,43.5,-100.00,SE,137,6.0,12.0,21,0.00,,,0.00,965.0,meteohub,2013-06-10 15:47:00,
2013-06-10 11:52:00,88.5,42.3,-100.00,South,190,5.0,12.0,20,0.00,,,0.00,963.0,meteohub,2013-06-10 15:52:00,
2013-06-10 12:02:00,88.5,42.3,-100.00,SE,140,6.0,13.0,20,0.00,,,0.00,998.0,meteohub,2013-06-10 16:02:00,
2013-06-10 12:07:00,88.5,42.3,-100.00,SE,142,12.0,14.0,20,0.00,,,0.00,981.0,meteohub,2013-06-10 16:07:00,
2013-06-10 12:12:00,88.3,45.9,-100.00,SSW,201,9.0,14.0,23,0.00,,,0.00,1004.0,meteohub,2013-06-10 16:12:00,
2013-06-10 12:17:00,88.3,40.8,-100.00,SSE,165,3.0,15.0,19,0.00,,,0.00,995.0,meteohub,2013-06-10 16:17:00,
2013-06-10 12:22:00,88.3,43.5,-100.00,South,169,7.0,15.0,21,0.00,,,0.00,1005.0,meteohub,2013-06-10 16:22:00,
2013-06-10 12:32:00,88.2,43.3,-100.00,SE,142,9.0,12.0,21,0.00,,,0.00,988.0,meteohub,2013-06-10 16:32:00,
2013-06-10 12:37:00,88.3,39.4,-100.00,SE,146,10.0,12.0,18,0.00,,,0.00,991.0,meteohub,2013-06-10 16:37:00,
2013-06-10 12:42:00,88.5,41.0,-100.00,ESE,102,3.0,12.0,19,0.00,,,0.00,995.0,meteohub,2013-06-10 16:42:00,
2013-06-10 12:47:00,88.7,43.7,-100.00,South,185,5.0,12.0,21,0.00,,,0.00,1007.0,meteohub,2013-06-10 16:47:00,
2013-06-10 12:52:00,88.3,43.5,-100.00,SSW,195,6.0,12.0,21,0.00,,,0.00,1007.0,meteohub,2013-06-10 16:52:00,
2013-06-10 12:57:00,88.0,41.9,-100.00,SSW,205,7.0,12.0,20,0.00,,,0.00,1014.0,meteohub,2013-06-10 16:57:00,
2013-06-10 13:02:00,88.5,42.3,-100.00,SSW,200,6.0,12.0,20,0.00,,,0.00,1011.0,meteohub,2013-06-10 17:02:00,
2013-06-10 13:12:00,88.3,43.5,-100.00,South,169,7.0,16.0,21,0.00,,,0.00,1053.0,meteohub,2013-06-10 17:12:00,
2013-06-10 13:22:00,88.5,44.8,-100.00,SE,144,8.0,13.0,22,0.00,,,0.00,1016.0,meteohub,2013-06-10 17:22:00,
2013-06-10 13:27:00,88.5,44.8,-100.00,South,171,4.0,14.0,22,0.00,,,0.00,1020.0,meteohub,2013-06-10 17:27:00,
2013-06-10 13:37:00,89.1,47.7,-100.00,SE,144,9.0,12.0,24,0.00,,,0.00,1042.0,meteohub,2013-06-10 17:37:00,
2013-06-10 13:47:00,88.3,48.0,-100.00,WSW,254,5.0,11.0,25,0.00,,,0.00,1032.0,meteohub,2013-06-10 17:47:00,
2013-06-10 13:52:00,88.9,42.6,-100.00,South,176,8.0,11.0,20,0.00,,,0.00,1039.0,meteohub,2013-06-10 17:52:00,
2013-06-10 13:57:00,89.1,41.4,-100.00,South,189,11.0,11.0,19,0.00,,,0.00,1035.0,meteohub,2013-06-10 17:57:00,
2013-06-10 14:02:00,88.9,41.4,-100.00,SSW,202,6.0,11.0,19,0.00,,,0.00,1032.0,meteohub,2013-06-10 18:02:00,
2013-06-10 14:07:00,88.5,44.8,-100.00,South,188,5.0,13.0,22,0.00,,,0.00,1011.0,meteohub,2013-06-10 18:07:00,
2013-06-10 14:12:00,88.5,48.2,-100.00,SE,145,9.0,13.0,25,0.00,,,0.00,970.0,meteohub,2013-06-10 18:12:00,
2013-06-10 14:17:00,88.3,48.0,-100.00,SSE,153,2.0,13.0,25,0.00,,,0.00,991.0,meteohub,2013-06-10 18:17:00,
2013-06-10 14:22:00,88.5,51.3,-100.00,South,183,5.0,13.0,28,0.00,,,0.00,1007.0,meteohub,2013-06-10 18:22:00,
2013-06-10 14:27:00,88.7,50.4,-100.00,SSE,148,6.0,12.0,27,0.00,,,0.00,1027.0,meteohub,2013-06-10 18:27:00,
2013-06-10 14:32:00,88.3,49.1,-100.00,SSE,156,6.0,12.0,26,0.00,,,0.00,1002.0,meteohub,2013-06-10 18:32:00,
2013-06-10 14:37:00,88.3,45.9,-100.00,ENE,75,5.0,10.0,23,0.00,,,0.00,997.0,meteohub,2013-06-10 18:37:00,
2013-06-10 14:47:00,88.2,47.8,-100.00,SSW,205,6.0,11.0,25,0.00,,,0.00,1009.0,meteohub,2013-06-10 18:47:00,
2013-06-10 14:52:00,88.3,49.1,-100.00,South,181,5.0,11.0,26,0.00,,,0.00,979.0,meteohub,2013-06-10 18:52:00,
2013-06-10 14:57:00,88.5,50.4,-100.00,SW,217,8.0,11.0,27,0.00,,,0.00,1020.0,meteohub,2013-06-10 18:57:00,
2013-06-10 15:02:00,88.5,46.0,-100.00,East,97,4.0,11.0,23,0.00,,,0.00,1042.0,meteohub,2013-06-10 19:02:00,
2013-06-10 15:07:00,88.2,48.9,-100.00,South,171,7.0,12.0,26,0.00,,,0.00,1067.0,meteohub,2013-06-10 19:07:00,
2013-06-10 15:12:00,88.3,40.8,-100.00,South,176,6.0,12.0,19,0.00,,,0.00,1141.0,meteohub,2013-06-10 19:12:00,
2013-06-10 15:17:00,88.9,46.2,-100.00,SW,215,4.0,10.0,23,0.00,,,0.00,1002.0,meteohub,2013-06-10 19:17:00,
2013-06-10 15:27:00,89.1,44.1,-100.00,SSE,157,7.0,11.0,21,0.00,,,0.00,1155.0,meteohub,2013-06-10 19:27:00,
2013-06-10 15:32:00,88.5,47.1,-100.00,SSE,148,5.0,11.0,24,0.00,,,0.00,1113.0,meteohub,2013-06-10 19:32:00,
2013-06-10 15:42:00,88.2,44.6,-100.00,South,169,5.0,12.0,22,0.00,,,0.00,823.0,meteohub,2013-06-10 19:42:00,
2013-06-10 15:52:00,88.2,47.8,-100.00,South,180,4.0,13.0,25,0.00,,,0.00,874.0,meteohub,2013-06-10 19:52:00,
2013-06-10 15:57:00,88.3,49.1,-100.00,SSW,211,6.0,13.0,26,0.00,,,0.00,879.0,meteohub,2013-06-10 19:57:00,
2013-06-10 16:02:00,87.6,49.5,-100.00,SSE,150,4.0,13.0,27,0.00,,,0.00,381.0,meteohub,2013-06-10 20:02:00,
2013-06-10 16:07:00,87.3,49.3,-100.00,South,180,8.0,13.0,27,0.00,,,0.00,858.0,meteohub,2013-06-10 20:07:00,
2013-06-10 16:17:00,88.0,47.8,-100.00,SSW,200,8.0,12.0,25,0.00,,,0.00,768.0,meteohub,2013-06-10 20:17:00,
2013-06-10 16:22:00,87.6,48.6,-100.00,South,184,7.0,12.0,26,0.00,,,0.00,751.0,meteohub,2013-06-10 20:22:00,
2013-06-10 16:27:00,87.3,45.0,-100.00,SE,131,7.0,13.0,23,0.00,,,0.00,712.0,meteohub,2013-06-10 20:27:00,
2013-06-10 16:32:00,87.4,43.9,-100.00,SW,229,11.0,13.0,22,0.00,,,0.00,710.0,meteohub,2013-06-10 20:32:00,
2013-06-10 16:37:00,88.0,45.5,-100.00,SSW,198,5.0,13.0,23,0.00,,,0.00,708.0,meteohub,2013-06-10 20:37:00,
2013-06-10 16:42:00,88.2,43.3,-100.00,SSE,148,5.0,13.0,21,0.00,,,0.00,708.0,meteohub,2013-06-10 20:42:00,
2013-06-10 16:47:00,88.0,47.8,-100.00,SSW,207,4.0,12.0,25,0.00,,,0.00,694.0,meteohub,2013-06-10 20:47:00,
2013-06-10 16:57:00,87.6,47.5,-100.00,South,169,5.0,11.0,25,0.00,,,0.00,729.0,meteohub,2013-06-10 20:57:00,
2013-06-10 17:02:00,87.1,50.0,-100.00,South,173,12.0,12.0,28,0.00,,,0.00,652.0,meteohub,2013-06-10 21:02:00,
2013-06-10 17:12:00,87.3,41.4,-100.00,South,190,3.0,12.0,20,0.00,,,0.00,334.0,meteohub,2013-06-10 21:12:00,
2013-06-10 17:17:00,87.4,40.1,-100.00,SSE,148,4.0,12.0,19,0.00,,,0.00,585.0,meteohub,2013-06-10 21:17:00,
2013-06-10 17:27:00,87.3,41.4,-100.00,South,181,3.0,14.0,20,0.00,,,0.00,529.0,meteohub,2013-06-10 21:27:00,
2013-06-10 17:32:00,87.4,40.1,-100.00,SSE,155,6.0,14.0,19,0.00,,,0.00,520.0,meteohub,2013-06-10 21:32:00,
2013-06-10 17:37:00,87.1,42.4,-100.00,South,190,7.0,11.0,21,0.00,,,0.00,501.0,meteohub,2013-06-10 21:37:00,
2013-06-10 17:42:00,87.1,39.7,-100.00,SE,134,7.0,11.0,19,0.00,,,0.00,476.0,meteohub,2013-06-10 21:42:00,
2013-06-10 17:47:00,87.1,41.2,-100.00,SE,142,5.0,14.0,20,0.00,,,0.00,454.0,meteohub,2013-06-10 21:47:00,
2013-06-10 17:57:00,86.4,40.6,-100.00,SSE,155,4.0,14.0,20,0.00,,,0.00,396.0,meteohub,2013-06-10 21:57:00,
2013-06-10 18:02:00,86.5,39.4,-100.00,South,171,6.0,14.0,19,0.00,,,0.00,346.0,meteohub,2013-06-10 22:02:00,
2013-06-10 18:12:00,86.9,38.3,-100.00,South,169,0.0,13.0,18,0.00,,,0.00,399.0,meteohub,2013-06-10 22:12:00,
2013-06-10 18:17:00,87.1,38.5,-100.00,SSE,153,7.0,13.0,18,0.00,,,0.00,385.0,meteohub,2013-06-10 22:17:00,
2013-06-10 18:22:00,86.7,36.7,-100.00,SSE,155,3.0,10.0,17,0.00,,,0.00,376.0,meteohub,2013-06-10 22:22:00,
2013-06-10 18:32:00,86.7,33.6,-100.00,SSE,153,2.0,10.0,15,0.00,,,0.00,339.0,meteohub,2013-06-10 22:32:00,
2013-06-10 18:42:00,86.5,35.1,-100.00,SSE,159,2.0,10.0,16,0.00,,,0.00,274.0,meteohub,2013-06-10 22:42:00,
2013-06-10 18:47:00,86.5,33.4,-100.00,South,179,3.0,10.0,15,0.00,,,0.00,264.0,meteohub,2013-06-10 22:47:00,
2013-06-10 18:52:00,86.2,33.1,-100.00,SSE,165,3.0,9.0,15,0.00,,,0.00,137.0,meteohub,2013-06-10 22:52:00,
2013-06-10 18:57:00,85.6,32.7,-100.00,SSE,151,4.0,9.0,15,0.00,,,0.00,139.0,meteohub,2013-06-10 22:57:00,
2013-06-10 19:02:00,85.6,29.1,-100.00,SSE,161,3.0,7.0,13,0.00,,,0.00,88.0,meteohub,2013-06-10 23:02:00,
2013-06-10 19:07:00,85.8,27.3,-100.00,SSE,148,0.0,7.0,12,0.00,,,0.00,77.0,meteohub,2013-06-10 23:07:00,
2013-06-10 19:12:00,85.8,27.3,-100.00,SSE,161,3.0,7.0,12,0.00,,,0.00,74.0,meteohub,2013-06-10 23:12:00,
2013-06-10 19:17:00,85.5,25.0,-100.00,SE,138,0.0,7.0,11,0.00,,,0.00,70.0,meteohub,2013-06-10 23:17:00,
2013-06-10 19:22:00,85.3,24.8,-100.00,SSE,151,5.0,7.0,11,0.00,,,0.00,56.0,meteohub,2013-06-10 23:22:00,
2013-06-10 19:27:00,84.9,24.6,-100.00,South,172,1.0,7.0,11,0.00,,,0.00,46.0,meteohub,2013-06-10 23:27:00,
2013-06-10 19:37:00,85.1,22.5,-100.00,SE,134,2.0,7.0,10,0.00,,,0.00,32.0,meteohub,2013-06-10 23:37:00,
2013-06-10 19:47:00,84.7,22.1,-100.00,SSE,168,0.0,5.0,10,0.00,,,0.00,21.0,meteohub,2013-06-10 23:47:00,
2013-06-10 19:52:00,84.6,21.9,-100.00,South,190,4.0,5.0,10,0.00,,,0.00,19.0,meteohub,2013-06-10 23:52:00,
2013-06-10 19:57:00,84.6,19.6,-100.00,SSE,157,0.0,6.0,9,0.00,,,0.00,16.0,meteohub,2013-06-10 23:57:00,
2013-06-10 20:02:00,84.6,19.6,-100.00,South,175,0.0,6.0,9,0.00,,,0.00,11.0,meteohub,2013-06-11 00:02:00,
2013-06-10 20:07:00,84.4,19.4,-100.00,NNE,16,2.0,5.0,9,0.00,,,0.00,5.0,meteohub,2013-06-11 00:07:00,
2013-06-10 20:17:00,84.2,19.2,-100.00,South,190,2.0,5.0,9,0.00,,,0.00,0.0,meteohub,2013-06-11 00:17:00,
2013-06-10 20:22:00,84.2,19.2,-100.00,SSE,164,1.0,6.0,9,0.00,,,0.00,0.0,meteohub,2013-06-11 00:22:00,
2013-06-10 20:32:00,84.0,19.0,-100.00,South,180,0.0,6.0,9,0.00,,,0.00,0.0,meteohub,2013-06-11 00:32:00,
2013-06-10 20:37:00,84.0,19.0,-100.00,SSE,164,0.0,6.0,9,0.00,,,0.00,0.0,meteohub,2013-06-11 00:37:00,
2013-06-10 20:47:00,83.8,19.0,-100.00,South,171,1.0,6.0,9,0.00,,,0.00,0.0,meteohub,2013-06-11 00:47:00,
2013-06-10 20:52:00,83.8,19.0,-100.00,SSE,159,0.0,6.0,9,0.00,,,0.00,0.0,meteohub,2013-06-11 00:52:00,
2013-06-10 20:57:00,83.7,18.9,-100.00,South,188,0.0,5.0,9,0.00,,,0.00,0.0,meteohub,2013-06-11 00:57:00,
2013-06-10 21:02:00,83.7,16.2,-100.00,SSE,168,2.0,5.0,8,0.00,,,0.00,0.0,meteohub,2013-06-11 01:02:00,
2013-06-10 21:07:00,83.8,16.3,-100.00,South,171,1.0,6.0,8,0.00,,,0.00,0.0,meteohub,2013-06-11 01:07:00,
2013-06-10 21:12:00,83.8,16.3,-100.00,South,188,0.0,6.0,8,0.00,,,0.00,0.0,meteohub,2013-06-11 01:12:00,
2013-06-10 21:17:00,83.7,16.2,-100.00,South,178,0.0,6.0,8,0.00,,,0.00,0.0,meteohub,2013-06-11 01:17:00,
2013-06-10 21:27:00,83.7,16.2,-100.00,South,179,0.0,5.0,8,0.00,,,0.00,0.0,meteohub,2013-06-11 01:27:00,
2013-06-10 21:37:00,83.7,16.2,-100.00,SSE,161,0.0,5.0,8,0.00,,,0.00,0.0,meteohub,2013-06-11 01:37:00,
2013-06-10 21:42:00,83.7,16.2,-100.00,South,180,0.0,5.0,8,0.00,,,0.00,0.0,meteohub,2013-06-11 01:42:00,
2013-06-10 21:47:00,83.5,18.7,-100.00,SE,138,0.0,5.0,9,0.00,,,0.00,0.0,meteohub,2013-06-11 01:47:00,
2013-06-10 21:52:00,83.5,18.7,-100.00,SSE,167,0.0,5.0,9,0.00,,,0.00,0.0,meteohub,2013-06-11 01:52:00,
2013-06-10 21:57:00,83.5,18.7,-100.00,South,173,1.0,6.0,9,0.00,,,0.00,0.0,meteohub,2013-06-11 01:57:00,
2013-06-10 22:02:00,83.7,18.9,-100.00,SSE,165,0.0,6.0,9,0.00,,,0.00,0.0,meteohub,2013-06-11 02:02:00,
2013-06-10 22:12:00,83.5,18.7,-100.00,SSE,159,2.0,5.0,9,0.00,,,0.00,0.0,meteohub,2013-06-11 02:12:00,
2013-06-10 22:17:00,83.5,18.7,-100.00,SSE,167,3.0,6.0,9,0.00,,,0.00,0.0,meteohub,2013-06-11 02:17:00,
2013-06-10 22:22:00,83.7,18.9,-100.00,SSE,165,2.0,6.0,9,0.00,,,0.00,0.0,meteohub,2013-06-11 02:22:00,
2013-06-10 22:27:00,83.7,18.9,-100.00,SSE,151,6.0,6.0,9,0.00,,,0.00,0.0,meteohub,2013-06-11 02:27:00,
2013-06-10 22:32:00,83.5,18.7,-100.00,SSE,159,3.0,6.0,9,0.00,,,0.00,0.0,meteohub,2013-06-11 02:32:00,
2013-06-10 22:37:00,83.5,18.7,-100.00,SE,146,3.0,10.0,9,0.00,,,0.00,0.0,meteohub,2013-06-11 02:37:00,
2013-06-10 22:42:00,83.3,18.5,-100.00,South,175,0.0,10.0,9,0.00,,,0.00,0.0,meteohub,2013-06-11 02:42:00,
2013-06-10 22:47:00,83.5,18.7,-100.00,SSE,163,1.0,10.0,9,0.00,,,0.00,0.0,meteohub,2013-06-11 02:47:00,
2013-06-10 22:57:00,83.5,18.7,-100.00,South,190,5.0,6.0,9,0.00,,,0.00,0.0,meteohub,2013-06-11 02:57:00,
2013-06-10 23:02:00,83.5,18.7,-100.00,SSE,163,1.0,6.0,9,0.00,,,0.00,0.0,meteohub,2013-06-11 03:02:00,
2013-06-10 23:07:00,83.7,18.9,-100.00,SSE,155,0.0,6.0,9,0.00,,,0.00,0.0,meteohub,2013-06-11 03:07:00,
2013-06-10 23:17:00,83.5,18.7,-100.00,South,172,3.0,7.0,9,0.00,,,0.00,0.0,meteohub,2013-06-11 03:17:00,
2013-06-10 23:27:00,83.7,18.9,-100.00,South,178,0.0,7.0,9,0.00,,,0.00,0.0,meteohub,2013-06-11 03:27:00,
2013-06-10 23:32:00,83.7,18.9,-100.00,South,172,3.0,6.0,9,0.00,,,0.00,0.0,meteohub,2013-06-11 03:32:00,
2013-06-10 23:37:00,83.5,18.7,-100.00,SE,130,4.0,6.0,9,0.00,,,0.00,0.0,meteohub,2013-06-11 03:37:00,
2013-06-10 23:47:00,83.5,18.7,-100.00,SSE,163,2.0,7.0,9,0.00,,,0.00,0.0,meteohub,2013-06-11 03:47:00,
2013-06-10 23:52:00,83.5,18.7,-100.00,SSE,165,3.0,7.0,9,0.00,,,0.00,0.0,meteohub,2013-06-11 03:52:00,
2013-06-10 23:57:00,83.3,18.5,-100.00,South,171,3.0,5.0,9,0.00,,,0.00,0.0,meteohub,2013-06-11 03:57:00,